createdAt,value
2023-12-18T02:05:29.543Z,48123.66
2023-12-18T02:10:34.656Z,48147.63
2023-12-18T02:15:39.064Z,48157.63
2023-12-18T02:20:45.511Z,48131.66
2023-12-18T02:25:51.476Z,48155.63
2023-12-18T02:30:57.214Z,48175.63
2023-12-18T02:36:04.400Z,48149.63
2023-12-18T02:41:10.521Z,48147.63
2023-12-18T02:46:15.045Z,48155.63
2023-12-18T02:51:19.689Z,48115.66
2023-12-18T02:56:27.227Z,48147.63
2023-12-18T03:01:32.243Z,48143.66
2023-12-18T03:06:36.984Z,48147.63
2023-12-18T03:11:44.186Z,48167.63
2023-12-18T03:16:48.676Z,48163.63
2023-12-18T03:21:52.978Z,48169.63
2023-12-18T03:26:59.238Z,48155.63
2023-12-18T03:32:05.806Z,48165.63
2023-12-18T03:37:10.282Z,48151.63
2023-12-18T03:42:16.313Z,48169.63
2023-12-18T03:47:21.226Z,48171.63
2023-12-18T03:52:25.895Z,48157.63
2023-12-18T03:57:31.885Z,48131.66
2023-12-18T04:02:36.540Z,48171.63
2023-12-18T04:07:41.349Z,48153.63
2023-12-18T04:12:47.525Z,48155.63
2023-12-18T04:17:52.248Z,48143.66
2023-12-18T04:22:56.830Z,48153.63
2023-12-18T04:28:02.688Z,48147.63
2023-12-18T04:33:07.585Z,48147.63
2023-12-18T04:38:12.118Z,48139.66
2023-12-18T04:43:18.348Z,48179.59
2023-12-18T04:48:22.877Z,48147.63
2023-12-18T04:53:27.342Z,48149.63
2023-12-18T04:58:35.627Z,48163.63
2023-12-18T05:03:40.789Z,48167.63
2023-12-18T05:08:45.573Z,48143.66
2023-12-18T05:13:51.767Z,48151.63
2023-12-18T05:18:58.473Z,48167.63
2023-12-18T05:24:03.113Z,48141.66
2023-12-18T05:29:08.971Z,48145.66
2023-12-18T05:34:13.481Z,48161.63
2023-12-18T05:39:18.094Z,48173.63
2023-12-18T05:44:24.147Z,48157.63
2023-12-18T05:49:30.404Z,48123.66
2023-12-18T05:54:34.901Z,48167.63
2023-12-18T05:59:40.804Z,48151.63
2023-12-18T06:04:45.384Z,48157.63
2023-12-18T06:09:50.503Z,48165.63
2023-12-18T06:14:56.513Z,48127.66
2023-12-18T06:20:00.955Z,48125.66
2023-12-18T06:25:05.714Z,48159.63
2023-12-18T06:30:13.292Z,48147.63
2023-12-18T06:35:18.001Z,48177.63
2023-12-18T06:40:22.731Z,48139.66
2023-12-18T06:45:28.834Z,48149.63
2023-12-18T06:50:33.955Z,48165.63
2023-12-18T06:55:40.425Z,48175.63
2023-12-18T07:00:46.670Z,48145.66
2023-12-18T07:05:51.904Z,48141.66
2023-12-18T07:10:57.913Z,48125.66
2023-12-18T07:16:03.910Z,48151.63
2023-12-18T07:21:08.346Z,48151.63
2023-12-18T07:26:14.224Z,48149.63
2023-12-18T07:31:20.650Z,48129.66
2023-12-18T07:36:25.307Z,48129.66
2023-12-18T07:41:32.794Z,48155.63
2023-12-18T07:46:38.844Z,48187.59
2023-12-18T07:51:43.364Z,48159.63
2023-12-18T07:56:47.799Z,48157.63
2023-12-18T08:01:53.587Z,48159.63
2023-12-18T08:06:58.066Z,48139.66
2023-12-18T08:12:03.192Z,48163.63
2023-12-18T08:17:09.135Z,48183.59
2023-12-18T08:22:13.586Z,48179.59
2023-12-18T08:27:18.077Z,48179.59
2023-12-18T08:32:24.427Z,48187.59
2023-12-18T08:37:29.170Z,48167.63
2023-12-18T08:42:33.765Z,48185.59
2023-12-18T08:47:39.899Z,48127.66
2023-12-18T08:52:44.511Z,48175.63
2023-12-18T08:57:49.112Z,48171.63
2023-12-18T09:02:55.070Z,48191.59
2023-12-18T09:07:59.604Z,48223.56
2023-12-18T09:13:04.738Z,48187.59
2023-12-18T09:18:10.949Z,48205.59
2023-12-18T09:23:16.578Z,48199.59
2023-12-18T09:28:21.265Z,48197.59
2023-12-18T09:33:27.284Z,48173.63
2023-12-18T09:38:31.808Z,48171.63
2023-12-18T09:43:36.277Z,48221.56
2023-12-18T09:48:42.371Z,48201.59
2023-12-18T09:53:48.391Z,48189.59
2023-12-18T09:58:56.715Z,48181.59
2023-12-18T10:04:02.763Z,48205.59
2023-12-18T10:09:10.833Z,48227.56
2023-12-18T10:14:15.540Z,48195.59
2023-12-18T10:19:22.098Z,48223.56
2023-12-18T10:24:28.472Z,48219.56
2023-12-18T10:29:33.242Z,48203.59
2023-12-18T10:34:39.306Z,48223.56
2023-12-18T10:39:44.201Z,48203.59
2023-12-18T10:44:49.537Z,48223.56
2023-12-18T10:49:56.942Z,48229.56
2023-12-18T10:55:02.272Z,48211.56
2023-12-18T11:00:09.772Z,48219.56
2023-12-18T11:05:16.403Z,48233.56
2023-12-18T11:10:21.453Z,48209.59
2023-12-18T11:15:38.727Z,48239.56
2023-12-18T11:20:45.389Z,48237.56
2023-12-18T11:25:52.839Z,48229.56
2023-12-18T11:31:03.150Z,48235.56
2023-12-18T11:36:09.937Z,48253.53
2023-12-18T11:41:40.971Z,48239.56
2023-12-18T11:46:46.366Z,48239.56
2023-12-18T11:51:53.792Z,48233.56
2023-12-18T11:56:59.206Z,48233.56
2023-12-18T12:02:03.777Z,48235.56
2023-12-18T12:07:09.816Z,48249.53
2023-12-18T12:12:16.290Z,48253.53
2023-12-18T12:17:22.476Z,48225.56
2023-12-18T12:22:29.715Z,48247.53
2023-12-18T12:27:34.377Z,48247.53
2023-12-18T12:32:39.061Z,48237.56
2023-12-18T12:37:45.348Z,48237.56
2023-12-18T12:42:50.313Z,48255.53
2023-12-18T12:47:58.823Z,48249.53
2023-12-18T12:53:05.366Z,48249.53
2023-12-18T12:58:10.731Z,48247.53
2023-12-18T13:03:16.541Z,48235.56
2023-12-18T13:08:22.873Z,48239.56
2023-12-18T13:13:27.621Z,48231.56
2023-12-18T13:18:32.371Z,48253.53
2023-12-18T13:23:38.759Z,48235.56
2023-12-18T13:28:43.277Z,48195.59
2023-12-18T13:33:48.171Z,48201.59
2023-12-18T13:38:54.212Z,48213.56
2023-12-18T13:43:58.681Z,48199.59
2023-12-18T13:49:03.375Z,48221.56
2023-12-18T13:54:09.471Z,48195.59
2023-12-18T13:59:14.038Z,48205.59
2023-12-18T14:04:18.593Z,48223.56
2023-12-18T14:09:25.702Z,48195.59
2023-12-18T14:14:30.302Z,48227.56
2023-12-18T14:19:35.837Z,48171.63
2023-12-18T14:24:41.935Z,48217.56
2023-12-18T14:29:46.512Z,48193.59
2023-12-18T14:34:51.183Z,48207.59
2023-12-18T14:39:57.507Z,48221.56
2023-12-18T14:45:02.345Z,48189.59
2023-12-18T14:50:08.281Z,48163.63
2023-12-18T14:55:14.422Z,48161.63
2023-12-18T15:00:19.011Z,48161.63
2023-12-18T15:05:24.881Z,48195.59
2023-12-18T15:10:31.201Z,48171.63
2023-12-18T15:15:35.874Z,48169.63
2023-12-18T15:20:40.613Z,48153.63
2023-12-18T15:25:46.472Z,48221.56
2023-12-18T15:30:51.033Z,48179.59
2023-12-18T15:35:58.693Z,48187.59
2023-12-18T15:41:08.104Z,48189.59
2023-12-18T15:46:12.952Z,48155.63
2023-12-18T15:51:17.531Z,48179.59
2023-12-18T15:56:23.569Z,48189.59
2023-12-18T16:01:28.327Z,48175.63
2023-12-18T16:06:32.951Z,48167.63
2023-12-18T16:11:39.065Z,48179.59
2023-12-18T16:16:43.761Z,48159.63
2023-12-18T16:21:48.537Z,48179.59
2023-12-18T16:26:54.579Z,48159.63
2023-12-18T16:31:59.105Z,48179.59
2023-12-18T16:37:03.571Z,48189.59
2023-12-18T16:42:10.182Z,48175.63
2023-12-18T16:47:14.663Z,48181.59
2023-12-18T16:52:19.481Z,48189.59
2023-12-18T16:57:25.951Z,48175.63
2023-12-18T17:02:30.532Z,48153.63
2023-12-18T17:07:35.222Z,48157.63
2023-12-18T17:12:41.391Z,48199.59
2023-12-18T17:17:46.651Z,48183.59
2023-12-18T17:22:51.671Z,48171.63
2023-12-18T17:27:59.097Z,48169.63
2023-12-18T17:33:06.250Z,48159.63
2023-12-18T17:38:11.118Z,48177.63
2023-12-18T17:43:17.162Z,48159.63
2023-12-18T17:48:21.917Z,48189.59
2023-12-18T17:53:27.974Z,48197.59
2023-12-18T17:58:34.130Z,48167.63
2023-12-18T18:03:39.426Z,48179.59
2023-12-18T18:08:44.063Z,48189.59
2023-12-18T18:13:49.917Z,48165.63
2023-12-18T18:18:54.708Z,48189.59
2023-12-18T18:23:59.870Z,48161.63
2023-12-18T18:29:06.414Z,48187.59
2023-12-18T18:34:11.218Z,48175.63
2023-12-18T18:39:16.193Z,48187.59
2023-12-18T18:44:23.492Z,48147.63
2023-12-18T18:49:28.108Z,48175.63
2023-12-18T18:54:33.253Z,48169.63
2023-12-18T18:59:39.275Z,48155.63
2023-12-18T19:04:43.920Z,48157.63
2023-12-18T19:09:48.755Z,48159.63
2023-12-18T19:14:55.488Z,48187.59
2023-12-18T19:19:59.940Z,48141.66
2023-12-18T19:25:04.666Z,48153.63
2023-12-18T19:30:12.360Z,48179.59
2023-12-18T19:35:18.541Z,48155.63
2023-12-18T19:40:23.040Z,48159.63
2023-12-18T19:45:28.966Z,48171.63
2023-12-18T19:50:34.099Z,48201.59
2023-12-18T19:55:39.701Z,48141.66
2023-12-18T20:00:45.735Z,48163.63
2023-12-18T20:05:50.460Z,48147.63
2023-12-18T20:10:57.713Z,48143.66
2023-12-18T20:16:03.666Z,48203.59
2023-12-18T20:21:08.492Z,48147.63
2023-12-18T20:26:13.064Z,48147.63
2023-12-18T20:31:19.287Z,48167.63
2023-12-18T20:36:24.126Z,48175.63
2023-12-18T20:41:28.718Z,48161.63
2023-12-18T20:46:34.639Z,48131.66
2023-12-18T20:51:42.473Z,48139.66
2023-12-18T20:56:47.097Z,48163.63
2023-12-18T21:01:53.620Z,48139.66
2023-12-18T21:06:58.507Z,48167.63
2023-12-18T21:12:02.952Z,48153.63
2023-12-18T21:17:08.845Z,48147.63
2023-12-18T21:22:13.471Z,48145.66
2023-12-18T21:27:18.200Z,48147.63
2023-12-18T21:32:24.362Z,48185.59
2023-12-18T21:37:28.761Z,48147.63
2023-12-18T21:42:33.217Z,48147.63
2023-12-18T21:47:40.855Z,48157.63
2023-12-18T21:52:45.504Z,48143.66
2023-12-18T21:57:50.196Z,48151.63
2023-12-18T22:02:56.107Z,48159.63
2023-12-18T22:08:00.991Z,48157.63
2023-12-18T22:13:06.086Z,48139.66
2023-12-18T22:18:12.177Z,48147.63
2023-12-18T22:23:16.942Z,48167.63
2023-12-18T22:28:21.551Z,48145.66
2023-12-18T22:33:27.593Z,48155.63
2023-12-18T22:38:32.701Z,48149.63
2023-12-18T22:43:37.213Z,48133.66
2023-12-18T22:48:43.065Z,48115.66
2023-12-18T22:53:47.675Z,48145.66
2023-12-18T22:58:53.110Z,48125.66
2023-12-18T23:03:59.393Z,48159.63
2023-12-18T23:09:04.355Z,48155.63
2023-12-18T23:14:09.115Z,48123.66
2023-12-18T23:19:15.269Z,48147.63
2023-12-18T23:29:41.597Z,48163.63
2023-12-18T23:34:47.633Z,48149.63
2023-12-18T23:39:53.625Z,48153.63
2023-12-18T23:44:58.170Z,48123.66
2023-12-18T23:50:04.101Z,48115.66
2023-12-18T23:55:09.250Z,48131.66
